Ana Sayfa
METAR-TAF:

METAR-TAF

Havaalanları :

Mahikeng, Güney Afrika

Enlem: 25-47S, Boylam: 025-32E, yükseklik: 1281 m

Güncel hava durumu gözlemi

Rapor saat 10:00 UTC de 2 saat ve 13 dakika önce yapıldı.
Rüzgar kuzey/kuzeybatıdan 7 kt
Sıcaklık 33°C
Nem 15%
Basınç 1018 hPa
Görüş mesafesi 10 km veya daha fazla
1500 m altında bulut yok ve kümülonimbus yok

METAR: FAMM 211000Z 33007KT CAVOK 33/03 Q1018 NOSIG

Saat: 14:13 (12:13 UTC)

Tahmin

Rapor saat 09:00 UTC de 3 saat ve 13 dakika önce yapıldı.
Ayın 21'si saat 10 UTC'den ayın 21'si saat 18 UTC'ye kadar geçerli Tahmin
Rüzgar kuzey/kuzeybatıdan 7 kt
Görüş mesafesi 10 km veya daha fazla
1500 m altında bulut yok ve kümülonimbus yok
Dönüşüyor
ayın 21'si saat 11 UTC'den ayın 21'si saat 13 UTC'ye kadar
Rüzgar batı/güneybatıdan 10 kt

TAF: FAMM 210900Z 2110/2118 33007KT CAVOK TX37/2113Z TN26/2118Z BECMG 2111/2113 24010KT

4.000'den fazla havaalanı için hava durumu gözlemleri ve tahminleri (METAR ve TAF raporları).

Kullanılabilir istasyonlar harita üzerinde sarı ve kırmızı noktalarla gösterilir.

İstasyonun adını görmek için fareyi noktanın üzerinde gezdirin.

Sonrasında hava gözlem ve tahminlerini görmek için tıklayın.

Haritayı değiştirmek için: yaklaştırmak için siyah artı işaretli yeşil düğmeye ve uzaklaştırmak için de eksi işaretli düğmeye hızla tıklayın; bitişik haritalar için yeşil okları kullanın.


METAR-TAF: